Time;durP1;ratioP1;P1;durP2;ratioP2;P2;SDS_P1;SDS_P2;PMS_P1;PMS_P2;Temp;Humidity;BMP_temperature;BMP_pressure;BME280_temperature;BME280_humidity;BME280_pressure;Samples;Min_cycle;Max_cycle;Signal;HPM_P1;HPM_P2
2021/11/19 00:00:13;;;;;;;20.17;10.93;;;;;;;;;;5090254;28;20429;-65
2021/11/19 00:02:39;;;;;;;21.88;10.43;;;;;;;;;;5088870;28;20024;-64
2021/11/19 00:05:08;;;;;;;25.25;10.88;;;;;;;;;;5092223;28;20024;-64
2021/11/19 00:07:35;;;;;;;25.48;11.65;;;;;;;;;;5075938;28;20489;-64
2021/11/19 00:10:01;;;;;;;26.58;10.80;;;;;;;;;;5092558;28;20035;-64
2021/11/19 00:12:27;;;;;;;22.27;11.65;;;;;;;;;;5091700;28;20028;-65
2021/11/19 00:14:53;;;;;;;22.60;11.30;;;;;;;;;;5092449;28;20027;-64
2021/11/19 00:17:19;;;;;;;19.98;10.15;;;;;;;;;;5091690;28;20359;-65
2021/11/19 00:19:46;;;;;;;27.60;12.40;;;;;;;;;;5104856;28;20034;-64
2021/11/19 00:22:15;;;;;;;19.73;11.15;;;;;;;;;;5091629;28;20023;-64
2021/11/19 00:24:41;;;;;;;20.25;10.73;;;;;;;;;;5092540;28;20032;-64
2021/11/19 00:27:10;;;;;;;21.00;12.15;;;;;;;;;;5092258;28;20020;-65
2021/11/19 00:29:36;;;;;;;32.08;12.38;;;;;;;;;;5092234;28;20473;-64
2021/11/19 00:32:02;;;;;;;29.55;12.02;;;;;;;;;;5092200;28;20039;-64
2021/11/19 00:34:28;;;;;;;18.42;11.02;;;;;;;;;;5091319;28;20020;-64
2021/11/19 00:36:58;;;;;;;19.58;10.73;;;;;;;;;;5092050;28;20034;-64
2021/11/19 00:39:25;;;;;;;16.80;9.30;;;;;;;;;;5091004;28;20024;-64
2021/11/19 00:41:51;;;;;;;19.50;10.07;;;;;;;;;;5091686;28;20031;-64
2021/11/19 00:44:17;;;;;;;17.33;10.23;;;;;;;;;;5091137;28;20457;-64
2021/11/19 00:46:44;;;;;;;19.13;9.25;;;;;;;;;;5091410;28;20411;-64
2021/11/19 00:49:12;;;;;;;25.17;11.18;;;;;;;;;;5090981;28;20024;-64
2021/11/19 00:51:40;;;;;;;18.75;10.65;;;;;;;;;;5091884;28;20032;-64
2021/11/19 00:54:06;;;;;;;21.95;11.50;;;;;;;;;;5091374;28;20059;-64
2021/11/19 00:56:34;;;;;;;26.05;11.82;;;;;;;;;;5091626;28;20020;-64
2021/11/19 00:59:01;;;;;;;22.38;11.40;;;;;;;;;;5091400;28;20115;-64
2021/11/19 01:01:42;;;;;;;23.63;11.88;;;;;;;;;;5091582;28;20582;-64
2021/11/19 01:04:09;;;;;;;24.60;12.15;;;;;;;;;;5074751;28;20027;-64
2021/11/19 01:06:35;;;;;;;23.70;11.68;;;;;;;;;;5090820;28;20103;-64
2021/11/19 01:09:03;;;;;;;20.23;10.48;;;;;;;;;;5090892;28;20520;-64
2021/11/19 01:11:29;;;;;;;20.38;10.77;;;;;;;;;;5091054;28;20044;-64
2021/11/19 01:13:57;;;;;;;21.75;10.43;;;;;;;;;;5091072;28;20039;-64
2021/11/19 01:16:25;;;;;;;21.98;10.80;;;;;;;;;;5090464;28;20345;-64
2021/11/19 01:18:53;;;;;;;30.13;12.07;;;;;;;;;;5091475;28;20146;-64
2021/11/19 01:21:24;;;;;;;23.55;11.88;;;;;;;;;;5090638;28;20035;-64
2021/11/19 01:23:50;;;;;;;19.23;11.55;;;;;;;;;;5083762;28;20034;-64
2021/11/19 01:26:21;;;;;;;23.80;11.45;;;;;;;;;;5090726;28;20488;-64
2021/11/19 01:28:52;;;;;;;24.05;13.20;;;;;;;;;;5091696;28;20119;-64
2021/11/19 01:31:24;;;;;;;27.33;12.90;;;;;;;;;;5090524;28;20039;-64
2021/11/19 01:33:50;;;;;;;23.83;12.80;;;;;;;;;;5091653;28;20031;-64
2021/11/19 01:36:17;;;;;;;24.42;12.45;;;;;;;;;;5091229;28;20034;-64
2021/11/19 01:38:44;;;;;;;22.95;12.52;;;;;;;;;;5091932;28;20080;-64
2021/11/19 01:41:16;;;;;;;24.25;12.38;;;;;;;;;;5090748;28;20028;-65
2021/11/19 01:43:43;;;;;;;25.02;13.13;;;;;;;;;;5091749;28;20078;-64
2021/11/19 01:46:13;;;;;;;20.00;12.13;;;;;;;;;;5090750;28;20044;-65
2021/11/19 01:48:39;;;;;;;;;;;;;;;;;;5091679;28;20487;-64
2021/11/19 01:51:32;;;;;;;22.13;12.38;;;;;;;;;;5091409;28;19918;-64
2021/11/19 01:53:58;;;;;;;21.75;11.57;;;;;;;;;;5088295;28;20047;-64
2021/11/19 01:56:31;;;;;;;22.13;12.05;;;;;;;;;;5090619;28;20024;-64
2021/11/19 01:59:04;;;;;;;22.80;12.25;;;;;;;;;;5090954;28;20036;-65
2021/11/19 02:01:50;;;;;;;24.55;13.38;;;;;;;;;;5089530;28;20232;-65
2021/11/19 02:04:19;;;;;;;21.98;12.57;;;;;;;;;;5089255;28;20040;-66
2021/11/19 02:06:50;;;;;;;25.63;13.02;;;;;;;;;;5090482;28;20050;-65
2021/11/19 02:09:42;;;;;;;24.65;14.05;;;;;;;;;;5090670;28;20127;-64
2021/11/19 02:12:13;;;;;;;25.45;13.80;;;;;;;;;;5091666;28;20500;-64
2021/11/19 02:14:45;;;;;;;22.35;12.63;;;;;;;;;;5095054;28;20060;-63
2021/11/19 02:17:11;;;;;;;20.70;12.30;;;;;;;;;;5094237;28;20028;-64
2021/11/19 02:19:40;;;;;;;25.35;13.85;;;;;;;;;;5094518;28;20055;-64
2021/11/19 02:22:11;;;;;;;23.80;13.10;;;;;;;;;;5094819;28;20027;-64
2021/11/19 02:24:37;;;;;;;29.33;14.55;;;;;;;;;;5094528;28;20254;-64
2021/11/19 02:27:11;;;;;;;26.88;14.20;;;;;;;;;;5094748;28;20028;-64
2021/11/19 02:29:39;;;;;;;28.48;14.35;;;;;;;;;;5094059;28;20024;-64
2021/11/19 02:32:13;;;;;;;21.27;12.65;;;;;;;;;;5094384;28;20024;-64
2021/11/19 02:34:39;;;;;;;23.67;13.48;;;;;;;;;;5094575;28;20024;-64
2021/11/19 02:37:16;;;;;;;24.77;12.63;;;;;;;;;;5094156;28;20084;-64
2021/11/19 02:39:47;;;;;;;29.95;14.27;;;;;;;;;;5094267;28;20233;-64
2021/11/19 02:42:19;;;;;;;25.35;13.75;;;;;;;;;;5093366;28;20039;-64
2021/11/19 02:44:46;;;;;;;22.33;12.18;;;;;;;;;;5093812;28;20330;-63
2021/11/19 02:47:14;;;;;;;28.27;13.50;;;;;;;;;;5093451;28;20047;-64
2021/11/19 02:49:41;;;;;;;27.63;13.15;;;;;;;;;;5093956;28;20085;-64
2021/11/19 02:52:09;;;;;;;24.17;13.27;;;;;;;;;;5094064;28;20052;-64
2021/11/19 02:54:35;;;;;;;28.17;14.02;;;;;;;;;;5092982;28;20031;-64
2021/11/19 02:57:03;;;;;;;26.60;13.15;;;;;;;;;;5093352;28;20032;-64
2021/11/19 02:59:29;;;;;;;25.90;13.18;;;;;;;;;;5093013;28;20537;-63
2021/11/19 03:02:00;;;;;;;23.85;13.25;;;;;;;;;;5093488;28;20028;-64
2021/11/19 03:04:28;;;;;;;26.23;14.35;;;;;;;;;;5092971;28;20103;-63
2021/11/19 03:06:56;;;;;;;33.85;14.57;;;;;;;;;;5092954;28;20032;-63
2021/11/19 03:09:34;;;;;;;30.88;15.27;;;;;;;;;;5092728;28;20108;-63
2021/11/19 03:12:01;;;;;;;32.65;15.02;;;;;;;;;;5093539;28;20028;-63
2021/11/19 03:14:27;;;;;;;28.85;14.98;;;;;;;;;;5092408;28;20103;-63
2021/11/19 03:16:54;;;;;;;30.77;15.60;;;;;;;;;;5093168;28;20047;-63
2021/11/19 03:19:20;;;;;;;26.65;14.85;;;;;;;;;;5092004;28;20039;-64
2021/11/19 03:21:46;;;;;;;27.45;16.00;;;;;;;;;;5092035;28;20020;-63
2021/11/19 03:24:13;;;;;;;29.30;16.15;;;;;;;;;;5092261;28;20100;-63
2021/11/19 03:26:40;;;;;;;27.33;14.98;;;;;;;;;;5085864;28;20077;-63
2021/11/19 03:29:07;;;;;;;37.53;16.80;;;;;;;;;;5083193;28;20113;-63
2021/11/19 03:31:33;;;;;;;28.55;14.93;;;;;;;;;;5076785;28;20582;-63
2021/11/19 03:34:00;;;;;;;33.35;16.27;;;;;;;;;;5076112;28;20757;-63
2021/11/19 03:36:26;;;;;;;32.80;16.88;;;;;;;;;;5092629;28;20065;-63
2021/11/19 03:38:55;;;;;;;22.98;15.38;;;;;;;;;;5091211;28;20168;-63
2021/11/19 03:41:24;;;;;;;32.58;15.75;;;;;;;;;;5073968;28;20377;-63
2021/11/19 03:43:58;;;;;;;28.48;15.77;;;;;;;;;;5087418;28;20039;-63
2021/11/19 03:46:27;;;;;;;31.92;15.88;;;;;;;;;;5091492;28;20044;-66
2021/11/19 03:48:53;;;;;;;29.60;15.57;;;;;;;;;;5092649;28;20078;-63
2021/11/19 03:51:22;;;;;;;29.38;15.13;;;;;;;;;;5091774;28;20035;-64
2021/11/19 03:53:48;;;;;;;27.38;15.25;;;;;;;;;;5092556;28;20144;-63
2021/11/19 03:56:15;;;;;;;28.02;15.25;;;;;;;;;;5092134;28;20484;-64
2021/11/19 03:58:43;;;;;;;24.95;15.02;;;;;;;;;;5092423;28;20032;-63
2021/11/19 04:01:18;;;;;;;27.27;15.20;;;;;;;;;;5092311;28;20113;-63
2021/11/19 04:03:44;;;;;;;35.65;17.40;;;;;;;;;;5092313;28;20035;-63
2021/11/19 04:06:12;;;;;;;31.83;17.50;;;;;;;;;;5092768;28;20465;-63
2021/11/19 04:08:39;;;;;;;35.13;18.65;;;;;;;;;;5091516;28;20031;-63
2021/11/19 04:11:05;;;;;;;37.72;18.45;;;;;;;;;;5092571;28;20028;-63
2021/11/19 04:13:31;;;;;;;34.95;17.83;;;;;;;;;;5091326;28;20020;-63
2021/11/19 04:15:59;;;;;;;35.33;17.38;;;;;;;;;;5092590;28;20031;-63
2021/11/19 04:18:25;;;;;;;28.42;16.52;;;;;;;;;;5091662;28;20020;-63
2021/11/19 04:20:52;;;;;;;30.63;15.30;;;;;;;;;;5092721;28;20496;-63
2021/11/19 04:23:18;;;;;;;27.75;15.95;;;;;;;;;;5091657;28;20031;-63
2021/11/19 04:25:44;;;;;;;29.05;15.38;;;;;;;;;;5092326;28;20031;-63
2021/11/19 04:28:12;;;;;;;29.38;15.80;;;;;;;;;;5092144;28;20032;-64
2021/11/19 04:30:40;;;;;;;26.00;15.18;;;;;;;;;;5091557;28;20036;-64
2021/11/19 04:33:07;;;;;;;30.27;15.55;;;;;;;;;;5091882;28;20039;-64
2021/11/19 04:35:33;;;;;;;24.83;14.65;;;;;;;;;;5091408;28;20024;-64
2021/11/19 04:38:00;;;;;;;25.23;15.05;;;;;;;;;;5092177;28;20020;-64
2021/11/19 04:40:26;;;;;;;30.75;15.07;;;;;;;;;;5091345;28;20521;-64
2021/11/19 04:42:53;;;;;;;26.23;14.50;;;;;;;;;;5091476;28;20145;-63
2021/11/19 04:45:20;;;;;;;26.67;15.07;;;;;;;;;;5090521;28;20119;-64
2021/11/19 04:47:48;;;;;;;26.17;14.70;;;;;;;;;;5091612;28;20020;-64
2021/11/19 04:50:17;;;;;;;29.48;15.45;;;;;;;;;;5091906;28;20028;-64
2021/11/19 04:52:44;;;;;;;25.30;15.07;;;;;;;;;;5091218;28;20036;-64
2021/11/19 04:55:11;;;;;;;33.95;17.17;;;;;;;;;;5091616;28;20035;-64
2021/11/19 04:57:37;;;;;;;32.65;17.10;;;;;;;;;;5091507;28;20031;-64
2021/11/19 05:00:07;;;;;;;35.15;17.83;;;;;;;;;;5091735;28;20043;-63
2021/11/19 05:02:33;;;;;;;32.58;17.42;;;;;;;;;;5090906;28;20036;-64
2021/11/19 05:04:59;;;;;;;31.48;15.73;;;;;;;;;;5092099;28;20376;-64
2021/11/19 05:07:25;;;;;;;32.72;15.55;;;;;;;;;;5091341;28;20028;-64
2021/11/19 05:09:51;;;;;;;28.13;15.80;;;;;;;;;;5091844;28;20020;-64
2021/11/19 05:12:22;;;;;;;31.08;15.65;;;;;;;;;;5091127;28;20024;-65
2021/11/19 05:14:49;;;;;;;27.98;15.23;;;;;;;;;;5082605;28;20020;-64
2021/11/19 05:17:23;;;;;;;28.85;15.25;;;;;;;;;;5091660;28;20027;-64
2021/11/19 05:19:59;;;;;;;28.55;15.27;;;;;;;;;;5088071;28;20036;-64
2021/11/19 05:22:25;;;;;;;27.83;15.45;;;;;;;;;;5090791;28;20024;-64
2021/11/19 05:24:51;;;;;;;27.70;17.02;;;;;;;;;;5093020;28;20027;-64
2021/11/19 05:27:20;;;;;;;29.60;15.80;;;;;;;;;;5091676;28;20477;-63
2021/11/19 05:29:46;;;;;;;35.33;17.90;;;;;;;;;;5091287;28;20047;-63
2021/11/19 05:32:12;;;;;;;30.73;17.08;;;;;;;;;;5091873;28;20031;-63
2021/11/19 05:34:39;;;;;;;37.42;20.20;;;;;;;;;;5090497;28;20102;-62
2021/11/19 05:37:06;;;;;;;43.67;20.60;;;;;;;;;;5090516;28;20032;-62
2021/11/19 05:39:32;;;;;;;41.40;20.30;;;;;;;;;;5089548;28;20074;-62
2021/11/19 05:41:58;;;;;;;47.03;21.20;;;;;;;;;;5087266;28;20021;-62
2021/11/19 05:44:24;;;;;;;42.50;19.75;;;;;;;;;;5089787;28;20592;-64
2021/11/19 05:46:51;;;;;;;41.65;19.13;;;;;;;;;;5094126;28;20036;-63
2021/11/19 05:49:23;;;;;;;37.95;19.20;;;;;;;;;;5093638;28;20357;-64
2021/11/19 05:51:51;;;;;;;35.10;17.50;;;;;;;;;;5093729;28;20024;-63
2021/11/19 05:54:21;;;;;;;35.70;18.60;;;;;;;;;;5092461;28;20350;-64
2021/11/19 05:56:47;;;;;;;;;;;;;;;;;;5094235;28;20047;-63
2021/11/19 05:59:13;;;;;;;36.03;17.73;;;;;;;;;;5093911;28;20021;-63
2021/11/19 06:01:39;;;;;;;32.45;18.08;;;;;;;;;;5093873;28;20036;-63
2021/11/19 06:04:06;;;;;;;31.40;17.65;;;;;;;;;;5095186;28;20031;-63
2021/11/19 06:06:32;;;;;;;32.67;16.40;;;;;;;;;;5093854;28;20044;-63
2021/11/19 06:08:58;;;;;;;38.45;17.92;;;;;;;;;;5095238;28;20036;-65
2021/11/19 06:11:27;;;;;;;36.42;18.55;;;;;;;;;;5094572;28;20031;-64
2021/11/19 06:14:03;;;;;;;31.33;17.58;;;;;;;;;;5095424;28;20085;-65
2021/11/19 06:16:30;;;;;;;37.90;19.20;;;;;;;;;;5094432;28;20026;-66
2021/11/19 06:18:59;;;;;;;34.72;19.55;;;;;;;;;;5095422;28;20035;-65
2021/11/19 06:21:27;;;;;;;48.00;22.75;;;;;;;;;;5098605;28;20047;-66
2021/11/19 06:23:56;;;;;;;40.42;21.75;;;;;;;;;;5098719;28;20032;-65
2021/11/19 06:26:23;;;;;;;41.10;21.35;;;;;;;;;;5094194;28;20028;-72
2021/11/19 06:28:50;;;;;;;39.50;21.90;;;;;;;;;;5095049;28;20043;-81
2021/11/19 06:31:17;;;;;;;42.78;20.77;;;;;;;;;;5094845;28;20020;-66
2021/11/19 06:33:44;;;;;;;50.20;25.38;;;;;;;;;;5093237;28;20530;-66
2021/11/19 06:36:10;;;;;;;61.38;26.50;;;;;;;;;;5094777;28;20024;-66
2021/11/19 06:38:37;;;;;;;45.70;21.80;;;;;;;;;;5093920;28;20381;-65
2021/11/19 06:41:04;;;;;;;37.58;20.10;;;;;;;;;;5094568;28;20069;-65
2021/11/19 06:43:31;;;;;;;38.33;19.20;;;;;;;;;;5092675;28;20035;-67
2021/11/19 06:45:57;;;;;;;31.42;18.58;;;;;;;;;;5093542;28;20461;-67
2021/11/19 06:48:23;;;;;;;31.27;17.70;;;;;;;;;;5092883;28;20020;-66
2021/11/19 06:50:50;;;;;;;27.40;17.00;;;;;;;;;;5094949;28;20110;-66
2021/11/19 06:53:18;;;;;;;31.70;17.13;;;;;;;;;;5093160;28;20485;-67
2021/11/19 06:55:44;;;;;;;33.67;16.27;;;;;;;;;;5093626;28;20016;-67
2021/11/19 06:58:11;;;;;;;27.85;16.98;;;;;;;;;;5094255;28;20031;-67
2021/11/19 07:00:40;;;;;;;31.83;16.80;;;;;;;;;;5093390;28;20046;-67
2021/11/19 07:03:07;;;;;;;27.13;15.52;;;;;;;;;;5094203;28;20027;-67
2021/11/19 07:05:33;;;;;;;26.02;16.58;;;;;;;;;;5093646;28;20028;-67
2021/11/19 07:08:01;;;;;;;25.60;15.23;;;;;;;;;;5093982;28;20067;-67
2021/11/19 07:10:31;;;;;;;27.38;16.27;;;;;;;;;;5093356;28;20841;-67
2021/11/19 07:12:57;;;;;;;25.67;13.95;;;;;;;;;;5094141;28;20036;-67
2021/11/19 07:15:23;;;;;;;24.27;15.48;;;;;;;;;;5093008;28;20028;-67
2021/11/19 07:17:51;;;;;;;25.45;14.70;;;;;;;;;;5092736;28;20035;-67
2021/11/19 07:20:18;;;;;;;27.17;15.45;;;;;;;;;;5093574;28;20028;-67
2021/11/19 07:22:45;;;;;;;22.85;14.50;;;;;;;;;;5092840;28;20031;-67
2021/11/19 07:25:12;;;;;;;23.52;13.75;;;;;;;;;;5093154;28;20024;-67
2021/11/19 07:27:39;;;;;;;21.80;13.25;;;;;;;;;;5093387;28;20024;-74
2021/11/19 07:30:06;;;;;;;20.67;14.25;;;;;;;;;;5098234;28;20130;-73
2021/11/19 07:32:33;;;;;;;21.58;12.25;;;;;;;;;;5093079;28;20040;-72
2021/11/19 07:34:59;;;;;;;21.70;11.60;;;;;;;;;;5093743;28;20067;-73
2021/11/19 07:37:25;;;;;;;23.10;11.65;;;;;;;;;;5092829;28;20016;-72
2021/11/19 07:39:52;;;;;;;21.67;13.30;;;;;;;;;;5093306;28;20420;-72
2021/11/19 07:42:18;;;;;;;19.02;11.57;;;;;;;;;;5093653;28;20063;-74
2021/11/19 07:44:48;;;;;;;19.20;11.98;;;;;;;;;;5086800;28;20035;-70
2021/11/19 07:47:14;;;;;;;20.92;13.70;;;;;;;;;;5092803;28;20028;-68
2021/11/19 07:49:40;;;;;;;21.85;12.52;;;;;;;;;;5094564;28;20028;-67
2021/11/19 07:52:07;;;;;;;18.60;11.57;;;;;;;;;;5091765;28;20449;-67
2021/11/19 07:54:33;;;;;;;21.58;12.25;;;;;;;;;;5091928;28;20067;-67
2021/11/19 07:56:59;;;;;;;19.73;11.73;;;;;;;;;;5093154;28;20028;-67
2021/11/19 07:59:26;;;;;;;27.00;13.57;;;;;;;;;;5091989;28;20442;-68
2021/11/19 08:01:56;;;;;;;22.10;11.48;;;;;;;;;;5092891;28;20354;-69
2021/11/19 08:04:24;;;;;;;18.65;11.48;;;;;;;;;;5092491;28;20051;-67
2021/11/19 08:06:51;;;;;;;19.00;11.98;;;;;;;;;;5092209;28;20020;-65
2021/11/19 08:09:17;;;;;;;20.50;11.85;;;;;;;;;;5092623;28;20484;-68
2021/11/19 08:11:44;;;;;;;18.90;11.98;;;;;;;;;;5092150;28;20089;-67
2021/11/19 08:14:10;;;;;;;19.80;11.50;;;;;;;;;;5093314;28;20047;-67
2021/11/19 08:16:44;;;;;;;19.67;11.98;;;;;;;;;;5091219;28;20024;-68
2021/11/19 08:19:16;;;;;;;17.30;11.13;;;;;;;;;;5092469;28;20047;-69
2021/11/19 08:21:42;;;;;;;19.77;12.02;;;;;;;;;;5091830;28;20024;-70
2021/11/19 08:24:08;;;;;;;19.33;12.25;;;;;;;;;;5092632;28;20020;-67
2021/11/19 08:26:38;;;;;;;18.17;11.07;;;;;;;;;;5091820;28;20024;-68
2021/11/19 08:29:07;;;;;;;17.95;11.10;;;;;;;;;;5092756;28;20024;-67
2021/11/19 08:31:34;;;;;;;17.38;11.73;;;;;;;;;;5092121;28;20322;-69
2021/11/19 08:34:00;;;;;;;16.10;11.48;;;;;;;;;;5092182;28;20546;-69
2021/11/19 08:36:27;;;;;;;18.17;11.63;;;;;;;;;;5088415;28;20024;-70
2021/11/19 08:38:53;;;;;;;17.52;12.27;;;;;;;;;;5086458;28;20035;-68
2021/11/19 08:41:20;;;;;;;17.75;12.13;;;;;;;;;;5093926;28;20035;-68
2021/11/19 08:43:47;;;;;;;24.52;12.35;;;;;;;;;;5092170;28;20082;-81
2021/11/19 08:46:16;;;;;;;17.92;12.27;;;;;;;;;;5091964;28;20099;-81
2021/11/19 08:48:46;;;;;;;17.88;11.65;;;;;;;;;;5089822;28;20263;-68
2021/11/19 08:51:15;;;;;;;17.77;11.90;;;;;;;;;;5072095;28;20024;-66
2021/11/19 08:53:41;;;;;;;25.60;13.07;;;;;;;;;;5075896;28;20031;-70
2021/11/19 08:56:07;;;;;;;23.55;14.00;;;;;;;;;;5091790;28;20063;-68
2021/11/19 08:58:36;;;;;;;23.65;12.82;;;;;;;;;;5089400;28;20028;-68
2021/11/19 09:01:04;;;;;;;21.02;12.75;;;;;;;;;;5091944;28;20028;-68
2021/11/19 09:03:30;;;;;;;21.55;13.00;;;;;;;;;;5091007;28;20024;-67
2021/11/19 09:05:56;;;;;;;19.13;12.60;;;;;;;;;;5086752;28;20020;-68
2021/11/19 09:08:33;;;;;;;20.40;11.73;;;;;;;;;;5089829;28;20039;-66
2021/11/19 09:10:59;;;;;;;21.42;12.75;;;;;;;;;;5071563;28;20036;-67
2021/11/19 09:13:26;;;;;;;23.13;12.48;;;;;;;;;;5078366;28;20024;-68
2021/11/19 09:15:54;;;;;;;19.25;11.75;;;;;;;;;;5089343;28;20020;-68
2021/11/19 09:18:27;;;;;;;19.48;11.27;;;;;;;;;;5073112;28;20145;-68
2021/11/19 09:20:56;;;;;;;22.85;11.88;;;;;;;;;;5087659;28;20031;-67
2021/11/19 09:23:30;;;;;;;23.35;12.50;;;;;;;;;;5087951;28;20062;-68
2021/11/19 09:25:59;;;;;;;24.02;12.43;;;;;;;;;;5088407;28;20508;-69
2021/11/19 09:28:28;;;;;;;21.17;12.32;;;;;;;;;;5071217;28;20382;-68
2021/11/19 09:30:57;;;;;;;21.58;12.73;;;;;;;;;;5078226;28;20385;-69
2021/11/19 09:33:26;;;;;;;19.73;11.88;;;;;;;;;;5091352;28;20377;-68
2021/11/19 09:35:53;;;;;;;21.35;13.15;;;;;;;;;;5090942;28;20153;-68
2021/11/19 09:38:20;;;;;;;24.77;13.32;;;;;;;;;;5091766;28;20065;-68
2021/11/19 09:40:59;;;;;;;24.08;13.77;;;;;;;;;;5087487;28;20024;-68
2021/11/19 09:43:31;;;;;;;23.33;12.57;;;;;;;;;;5091305;28;20028;-68
2021/11/19 09:46:06;;;;;;;24.13;13.32;;;;;;;;;;5091100;28;20070;-67
2021/11/19 09:48:45;;;;;;;19.85;12.73;;;;;;;;;;5090399;28;20495;-67
2021/11/19 09:51:17;;;;;;;24.20;13.17;;;;;;;;;;5081014;28;20088;-67
2021/11/19 09:53:46;;;;;;;22.13;12.57;;;;;;;;;;5090614;28;20329;-68
2021/11/19 09:56:37;;;;;;;22.92;13.32;;;;;;;;;;5090769;28;20024;-69
2021/11/19 09:59:03;;;;;;;;;;;;;;;;;;5083246;28;20485;-67
2021/11/19 10:01:48;;;;;;;22.23;12.43;;;;;;;;;;5090253;28;19911;-68
2021/11/19 10:04:38;;;;;;;25.17;13.27;;;;;;;;;;5090696;28;20481;-68
2021/11/19 10:07:18;;;;;;;23.85;12.15;;;;;;;;;;5091566;28;20025;-68
2021/11/19 10:09:53;;;;;;;25.05;13.07;;;;;;;;;;5090500;28;20534;-68
2021/11/19 10:12:23;;;;;;;24.35;12.27;;;;;;;;;;5091205;28;20036;-68
2021/11/19 10:14:50;;;;;;;20.88;12.68;;;;;;;;;;5090806;28;20500;-68
2021/11/19 10:17:35;;;;;;;20.08;11.48;;;;;;;;;;5091231;28;20385;-68
2021/11/19 10:20:05;;;;;;;28.48;13.13;;;;;;;;;;5091287;28;20485;-68
2021/11/19 10:22:31;;;;;;;;;;;;;;;;;;5090515;28;20523;-68
2021/11/19 10:25:04;;;;;;;22.60;13.05;;;;;;;;;;5091254;28;19964;-68
2021/11/19 10:27:39;;;;;;;28.50;13.70;;;;;;;;;;5090688;28;20465;-68
2021/11/19 10:30:27;;;;;;;24.85;13.73;;;;;;;;;;5091456;28;20546;-68
2021/11/19 10:32:54;;;;;;;29.95;15.57;;;;;;;;;;5094898;28;20082;-67
2021/11/19 10:35:20;;;;;;;27.10;13.85;;;;;;;;;;5094887;28;20029;-67
2021/11/19 10:38:02;;;;;;;27.58;14.75;;;;;;;;;;5094196;28;20080;-68
2021/11/19 10:40:28;;;;;;;24.05;13.73;;;;;;;;;;5094309;28;20545;-68
2021/11/19 10:43:25;;;;;;;30.95;14.55;;;;;;;;;;5094704;28;20477;-68
2021/11/19 10:45:54;;;;;;;20.90;13.13;;;;;;;;;;5094109;28;20048;-69
2021/11/19 10:48:23;;;;;;;26.15;14.02;;;;;;;;;;5094551;28;20031;-68
2021/11/19 10:51:08;;;;;;;26.08;14.85;;;;;;;;;;5093047;28;20036;-68
2021/11/19 10:53:46;;;;;;;23.17;13.48;;;;;;;;;;5093196;28;20028;-68
2021/11/19 10:56:15;;;;;;;28.95;14.45;;;;;;;;;;5094532;28;20483;-68
2021/11/19 10:58:41;;;;;;;23.40;14.32;;;;;;;;;;5088422;28;20029;-68
2021/11/19 11:01:18;;;;;;;25.80;13.75;;;;;;;;;;5081244;28;20095;-68
2021/11/19 11:03:58;;;;;;;26.58;14.35;;;;;;;;;;5084148;28;20512;-68
2021/11/19 11:06:35;;;;;;;25.65;14.10;;;;;;;;;;5074896;28;20020;-68
2021/11/19 11:09:19;;;;;;;27.38;13.38;;;;;;;;;;5076969;28;20179;-68
2021/11/19 11:11:52;;;;;;;29.38;15.73;;;;;;;;;;5079269;28;20060;-68
2021/11/19 11:14:19;;;;;;;23.02;14.45;;;;;;;;;;5092071;28;20032;-68
2021/11/19 11:16:46;;;;;;;24.90;15.25;;;;;;;;;;5088433;28;20127;-68
2021/11/19 11:19:13;;;;;;;29.20;15.07;;;;;;;;;;5083701;28;20028;-68
2021/11/19 11:21:42;;;;;;;26.92;15.93;;;;;;;;;;5081965;28;20028;-68
2021/11/19 11:24:11;;;;;;;33.75;15.35;;;;;;;;;;5093318;28;20094;-68
2021/11/19 11:26:40;;;;;;;30.95;15.05;;;;;;;;;;5092419;28;20023;-68
2021/11/19 11:29:09;;;;;;;27.70;16.95;;;;;;;;;;5093684;28;20032;-68
2021/11/19 11:31:53;;;;;;;37.80;17.40;;;;;;;;;;5092941;28;20039;-68
2021/11/19 11:34:42;;;;;;;27.63;15.73;;;;;;;;;;5092686;28;20028;-68
2021/11/19 11:37:17;;;;;;;32.20;16.17;;;;;;;;;;5093171;28;20024;-69
2021/11/19 11:39:45;;;;;;;34.25;17.30;;;;;;;;;;5092576;28;20035;-68
2021/11/19 11:42:16;;;;;;;32.50;16.73;;;;;;;;;;5091966;28;20509;-69
2021/11/19 11:44:45;;;;;;;29.05;15.98;;;;;;;;;;5093150;28;20035;-69
2021/11/19 11:47:31;;;;;;;34.78;17.08;;;;;;;;;;5093491;28;20063;-69
2021/11/19 11:49:59;;;;;;;33.65;16.77;;;;;;;;;;5051866;28;20105;-68
2021/11/19 11:52:32;;;;;;;30.92;15.95;;;;;;;;;;5093689;28;20016;-69
2021/11/19 11:55:09;;;;;;;28.67;16.30;;;;;;;;;;5093178;28;20024;-69
2021/11/19 11:57:47;;;;;;;33.58;16.73;;;;;;;;;;5091832;28;20028;-68
2021/11/19 12:00:20;;;;;;;30.27;16.00;;;;;;;;;;5093280;28;20032;-68
2021/11/19 12:02:52;;;;;;;28.27;15.18;;;;;;;;;;5092301;28;20033;-68
2021/11/19 12:05:18;;;;;;;29.92;16.63;;;;;;;;;;5092612;28;21696;-69
2021/11/19 12:08:03;;;;;;;32.85;15.15;;;;;;;;;;5092677;28;20020;-69
2021/11/19 12:10:35;;;;;;;23.92;13.93;;;;;;;;;;5092583;28;20032;-68
2021/11/19 12:13:23;;;;;;;21.80;13.40;;;;;;;;;;5093090;28;20020;-69
2021/11/19 12:16:08;;;;;;;19.98;12.77;;;;;;;;;;5091205;28;20077;-68
2021/11/19 12:18:55;;;;;;;24.77;12.73;;;;;;;;;;5092240;28;20048;-68
2021/11/19 12:21:21;;;;;;;26.63;14.50;;;;;;;;;;5093007;28;20497;-69
2021/11/19 12:23:53;;;;;;;26.00;14.20;;;;;;;;;;5091571;28;20027;-69
2021/11/19 12:26:41;;;;;;;23.55;14.10;;;;;;;;;;5072853;28;20025;-68
2021/11/19 12:29:10;;;;;;;24.58;13.35;;;;;;;;;;5072442;28;20028;-68
2021/11/19 12:31:43;;;;;;;22.03;13.97;;;;;;;;;;5071811;28;20028;-68
2021/11/19 12:34:16;;;;;;;30.13;15.40;;;;;;;;;;5072569;28;20362;-68
2021/11/19 12:37:12;;;;;;;26.92;14.05;;;;;;;;;;5071488;28;20024;-68
2021/11/19 12:39:40;;;;;;;27.55;14.02;;;;;;;;;;5058514;28;20033;-68
2021/11/19 12:42:17;;;;;;;29.02;14.10;;;;;;;;;;5091311;28;20016;-68
2021/11/19 12:44:49;;;;;;;23.40;13.50;;;;;;;;;;5091624;28;20024;-68
2021/11/19 12:47:18;;;;;;;24.95;13.30;;;;;;;;;;5070809;28;20040;-68
2021/11/19 12:50:00;;;;;;;18.17;11.98;;;;;;;;;;5071410;28;20097;-68
2021/11/19 12:52:38;;;;;;;19.27;12.18;;;;;;;;;;5072211;28;20037;-68
2021/11/19 12:55:05;;;;;;;23.23;11.60;;;;;;;;;;5071689;28;20017;-69
2021/11/19 12:57:50;;;;;;;20.75;10.85;;;;;;;;;;5071581;28;20033;-69
2021/11/19 13:00:23;;;;;;;27.05;11.93;;;;;;;;;;5071491;28;20036;-68
2021/11/19 13:03:09;;;;;;;19.40;11.40;;;;;;;;;;5051171;28;20044;-68
2021/11/19 13:06:09;;;;;;;23.00;12.55;;;;;;;;;;5070524;28;20042;-68
2021/11/19 13:08:50;;;;;;;29.95;13.68;;;;;;;;;;5048818;28;20545;-68
2021/11/19 13:11:28;;;;;;;26.08;12.98;;;;;;;;;;5070254;28;20135;-69
2021/11/19 13:14:24;;;;;;;19.63;11.65;;;;;;;;;;5070925;28;20031;-69
2021/11/19 13:16:53;;;;;;;24.88;12.45;;;;;;;;;;5058047;28;20670;-69
2021/11/19 13:19:29;;;;;;;24.95;13.07;;;;;;;;;;5071556;28;20033;-69
2021/11/19 13:21:58;;;;;;;23.15;12.45;;;;;;;;;;5070947;28;20108;-68
2021/11/19 13:24:27;;;;;;;26.25;11.95;;;;;;;;;;5071557;28;20401;-68
2021/11/19 13:27:16;;;;;;;22.50;13.23;;;;;;;;;;5070629;28;20069;-68
2021/11/19 13:29:45;;;;;;;26.10;11.98;;;;;;;;;;5053265;28;20040;-68
2021/11/19 13:32:20;;;;;;;31.17;12.80;;;;;;;;;;5071451;28;20470;-69
2021/11/19 13:34:48;;;;;;;24.98;12.55;;;;;;;;;;5070654;28;20036;-69
2021/11/19 13:37:23;;;;;;;25.48;12.75;;;;;;;;;;5071164;28;20153;-68
2021/11/19 13:39:51;;;;;;;23.40;13.02;;;;;;;;;;5070619;28;20497;-68
2021/11/19 13:42:17;;;;;;;23.13;12.75;;;;;;;;;;5071277;28;20025;-69
2021/11/19 13:44:51;;;;;;;28.50;15.10;;;;;;;;;;5070357;28;20020;-69
2021/11/19 13:47:40;;;;;;;29.67;14.15;;;;;;;;;;5071059;28;20516;-69
2021/11/19 13:50:13;;;;;;;24.15;12.18;;;;;;;;;;5071599;28;20120;-69
2021/11/19 13:52:47;;;;;;;23.83;11.52;;;;;;;;;;5069369;28;20021;-68
2021/11/19 13:55:20;;;;;;;22.88;11.48;;;;;;;;;;5071362;28;20040;-68
2021/11/19 13:57:53;;;;;;;23.40;11.77;;;;;;;;;;5070198;28;20032;-69
2021/11/19 14:00:30;;;;;;;25.75;12.13;;;;;;;;;;5071263;28;20036;-69
2021/11/19 14:02:57;;;;;;;27.50;12.23;;;;;;;;;;5069038;28;20094;-68
2021/11/19 14:05:25;;;;;;;25.17;13.32;;;;;;;;;;5071671;28;20432;-69
2021/11/19 14:07:55;;;;;;;20.23;11.45;;;;;;;;;;5072845;28;20678;-69
2021/11/19 14:10:21;;;;;;;26.48;13.05;;;;;;;;;;5074683;28;20024;-68
2021/11/19 14:12:49;;;;;;;29.60;12.30;;;;;;;;;;5074008;28;20051;-69
2021/11/19 14:15:32;;;;;;;25.75;12.35;;;;;;;;;;5086205;28;20035;-68
2021/11/19 14:18:09;;;;;;;24.15;12.18;;;;;;;;;;5074789;28;20035;-68
2021/11/19 14:23:41;;;;;;;24.63;12.60;;;;;;;;;;5074990;28;20495;-68
2021/11/19 14:26:10;;;;;;;21.02;10.90;;;;;;;;;;5074836;28;20020;-72
2021/11/19 14:28:40;;;;;;;23.73;12.45;;;;;;;;;;5073759;28;20371;-70
2021/11/19 14:31:08;;;;;;;23.73;12.50;;;;;;;;;;5074971;28;20028;-68
2021/11/19 14:33:52;;;;;;;24.33;11.77;;;;;;;;;;5065161;28;20013;-66
2021/11/19 14:36:25;;;;;;;21.83;11.55;;;;;;;;;;5076413;28;20470;-66
2021/11/19 14:38:54;;;;;;;22.58;12.25;;;;;;;;;;5073441;28;20815;-64